sensor_id;sensor_type;location;lat;lon;timestamp;P1;durP1;ratioP1;P2;durP2;ratioP2
14272;SDS011;7220;49.450;11.052;2023-02-15T00:03:16;17.73;;;12.55;;
14272;SDS011;7220;49.450;11.052;2023-02-15T00:07:17;20.15;;;14.07;;
14272;SDS011;7220;49.450;11.052;2023-02-15T00:11:18;18.10;;;13.02;;
14272;SDS011;7220;49.450;11.052;2023-02-15T00:15:39;16.70;;;12.50;;
14272;SDS011;7220;49.450;11.052;2023-02-15T00:19:39;16.43;;;11.77;;
14272;SDS011;7220;49.450;11.052;2023-02-15T00:23:40;16.30;;;11.43;;
14272;SDS011;7220;49.450;11.052;2023-02-15T00:27:40;17.40;;;11.63;;
14272;SDS011;7220;49.450;11.052;2023-02-15T00:31:40;16.40;;;11.52;;
14272;SDS011;7220;49.450;11.052;2023-02-15T00:35:41;17.27;;;12.00;;
14272;SDS011;7220;49.450;11.052;2023-02-15T00:39:41;15.02;;;11.30;;
14272;SDS011;7220;49.450;11.052;2023-02-15T00:43:41;16.48;;;12.15;;
14272;SDS011;7220;49.450;11.052;2023-02-15T00:47:41;18.35;;;12.43;;
14272;SDS011;7220;49.450;11.052;2023-02-15T00:51:42;17.20;;;12.27;;
14272;SDS011;7220;49.450;11.052;2023-02-15T00:55:42;19.13;;;13.33;;
14272;SDS011;7220;49.450;11.052;2023-02-15T00:59:42;17.80;;;12.30;;
14272;SDS011;7220;49.450;11.052;2023-02-15T01:03:43;16.73;;;11.32;;
14272;SDS011;7220;49.450;11.052;2023-02-15T01:07:43;16.47;;;12.03;;
14272;SDS011;7220;49.450;11.052;2023-02-15T01:11:44;18.03;;;12.60;;
14272;SDS011;7220;49.450;11.052;2023-02-15T01:15:45;18.37;;;12.20;;
14272;SDS011;7220;49.450;11.052;2023-02-15T01:19:45;16.75;;;11.82;;
14272;SDS011;7220;49.450;11.052;2023-02-15T01:23:46;17.90;;;11.60;;
14272;SDS011;7220;49.450;11.052;2023-02-15T01:27:47;14.85;;;10.75;;
14272;SDS011;7220;49.450;11.052;2023-02-15T01:31:47;16.23;;;10.97;;
14272;SDS011;7220;49.450;11.052;2023-02-15T01:35:47;18.50;;;12.13;;
14272;SDS011;7220;49.450;11.052;2023-02-15T01:39:48;15.48;;;10.77;;
14272;SDS011;7220;49.450;11.052;2023-02-15T01:43:55;16.33;;;11.60;;
14272;SDS011;7220;49.450;11.052;2023-02-15T01:48:05;17.67;;;11.27;;
14272;SDS011;7220;49.450;11.052;2023-02-15T01:52:17;15.77;;;11.00;;
14272;SDS011;7220;49.450;11.052;2023-02-15T01:56:22;18.47;;;11.93;;
14272;SDS011;7220;49.450;11.052;2023-02-15T02:00:27;17.52;;;11.15;;
14272;SDS011;7220;49.450;11.052;2023-02-15T02:04:31;18.17;;;12.35;;
14272;SDS011;7220;49.450;11.052;2023-02-15T02:08:38;16.73;;;11.33;;
14272;SDS011;7220;49.450;11.052;2023-02-15T02:12:39;17.83;;;12.37;;
14272;SDS011;7220;49.450;11.052;2023-02-15T02:29:33;18.80;;;12.50;;
14272;SDS011;7220;49.450;11.052;2023-02-15T02:34:00;17.30;;;12.50;;
14272;SDS011;7220;49.450;11.052;2023-02-15T02:42:43;16.57;;;11.33;;
14272;SDS011;7220;49.450;11.052;2023-02-15T02:46:50;19.00;;;12.70;;
14272;SDS011;7220;49.450;11.052;2023-02-15T02:50:54;18.27;;;11.83;;
14272;SDS011;7220;49.450;11.052;2023-02-15T02:54:54;17.40;;;11.50;;
14272;SDS011;7220;49.450;11.052;2023-02-15T02:59:38;15.90;;;11.27;;
14272;SDS011;7220;49.450;11.052;2023-02-15T03:07:36;15.23;;;10.33;;
14272;SDS011;7220;49.450;11.052;2023-02-15T03:11:37;19.10;;;12.40;;
14272;SDS011;7220;49.450;11.052;2023-02-15T03:15:38;17.43;;;11.43;;
14272;SDS011;7220;49.450;11.052;2023-02-15T03:20:04;16.67;;;10.67;;
14272;SDS011;7220;49.450;11.052;2023-02-15T03:24:14;15.13;;;10.17;;
14272;SDS011;7220;49.450;11.052;2023-02-15T03:28:20;15.43;;;10.10;;
14272;SDS011;7220;49.450;11.052;2023-02-15T03:32:28;13.40;;;9.43;;
14272;SDS011;7220;49.450;11.052;2023-02-15T03:36:34;17.33;;;11.20;;
14272;SDS011;7220;49.450;11.052;2023-02-15T03:40:42;16.67;;;10.60;;
14272;SDS011;7220;49.450;11.052;2023-02-15T03:45:05;16.87;;;11.60;;
14272;SDS011;7220;49.450;11.052;2023-02-15T03:49:11;16.30;;;10.70;;
14272;SDS011;7220;49.450;11.052;2023-02-15T03:53:18;15.53;;;10.70;;
14272;SDS011;7220;49.450;11.052;2023-02-15T03:57:24;14.20;;;10.00;;
14272;SDS011;7220;49.450;11.052;2023-02-15T04:01:59;13.73;;;9.40;;
14272;SDS011;7220;49.450;11.052;2023-02-15T04:06:00;14.87;;;9.73;;
14272;SDS011;7220;49.450;11.052;2023-02-15T04:10:02;13.60;;;10.13;;
14272;SDS011;7220;49.450;11.052;2023-02-15T04:14:21;14.63;;;10.50;;
14272;SDS011;7220;49.450;11.052;2023-02-15T04:18:41;14.23;;;9.30;;
14272;SDS011;7220;49.450;11.052;2023-02-15T04:23:05;15.27;;;9.93;;
14272;SDS011;7220;49.450;11.052;2023-02-15T04:27:24;13.63;;;9.47;;
14272;SDS011;7220;49.450;11.052;2023-02-15T04:31:25;13.10;;;9.53;;
14272;SDS011;7220;49.450;11.052;2023-02-15T04:35:25;13.50;;;8.90;;
14272;SDS011;7220;49.450;11.052;2023-02-15T04:39:25;13.70;;;8.83;;
14272;SDS011;7220;49.450;11.052;2023-02-15T04:43:26;15.63;;;9.53;;
14272;SDS011;7220;49.450;11.052;2023-02-15T04:47:26;14.00;;;9.73;;
14272;SDS011;7220;49.450;11.052;2023-02-15T04:51:26;16.57;;;10.80;;
14272;SDS011;7220;49.450;11.052;2023-02-15T04:55:27;13.83;;;10.10;;
14272;SDS011;7220;49.450;11.052;2023-02-15T04:59:27;14.43;;;9.77;;
14272;SDS011;7220;49.450;11.052;2023-02-15T05:03:27;15.73;;;10.80;;
14272;SDS011;7220;49.450;11.052;2023-02-15T05:07:28;12.87;;;9.83;;
14272;SDS011;7220;49.450;11.052;2023-02-15T05:11:28;16.20;;;11.40;;
14272;SDS011;7220;49.450;11.052;2023-02-15T05:15:28;15.90;;;11.23;;
14272;SDS011;7220;49.450;11.052;2023-02-15T05:19:28;16.67;;;11.80;;
14272;SDS011;7220;49.450;11.052;2023-02-15T05:23:29;16.40;;;11.70;;
14272;SDS011;7220;49.450;11.052;2023-02-15T05:27:29;17.67;;;11.13;;
14272;SDS011;7220;49.450;11.052;2023-02-15T05:31:48;15.00;;;11.00;;
14272;SDS011;7220;49.450;11.052;2023-02-15T05:35:49;14.20;;;11.23;;
14272;SDS011;7220;49.450;11.052;2023-02-15T05:39:49;18.27;;;11.57;;
14272;SDS011;7220;49.450;11.052;2023-02-15T05:43:49;15.97;;;11.03;;
14272;SDS011;7220;49.450;11.052;2023-02-15T05:47:50;14.80;;;10.80;;
14272;SDS011;7220;49.450;11.052;2023-02-15T05:51:50;15.90;;;11.93;;
14272;SDS011;7220;49.450;11.052;2023-02-15T05:55:50;17.63;;;12.13;;
14272;SDS011;7220;49.450;11.052;2023-02-15T05:59:51;16.87;;;12.30;;
14272;SDS011;7220;49.450;11.052;2023-02-15T06:03:51;18.00;;;12.23;;
14272;SDS011;7220;49.450;11.052;2023-02-15T06:07:52;19.93;;;13.17;;
14272;SDS011;7220;49.450;11.052;2023-02-15T06:11:52;19.13;;;13.17;;
14272;SDS011;7220;49.450;11.052;2023-02-15T06:15:52;17.37;;;12.17;;
14272;SDS011;7220;49.450;11.052;2023-02-15T06:19:53;19.77;;;12.47;;
14272;SDS011;7220;49.450;11.052;2023-02-15T06:23:53;17.80;;;11.90;;
14272;SDS011;7220;49.450;11.052;2023-02-15T06:27:53;18.17;;;12.67;;
14272;SDS011;7220;49.450;11.052;2023-02-15T06:31:54;17.83;;;12.30;;
14272;SDS011;7220;49.450;11.052;2023-02-15T06:35:54;15.20;;;10.50;;
14272;SDS011;7220;49.450;11.052;2023-02-15T06:39:54;18.67;;;12.17;;
14272;SDS011;7220;49.450;11.052;2023-02-15T06:43:55;17.00;;;12.53;;
14272;SDS011;7220;49.450;11.052;2023-02-15T06:47:55;18.87;;;12.57;;
14272;SDS011;7220;49.450;11.052;2023-02-15T06:51:56;19.07;;;12.53;;
14272;SDS011;7220;49.450;11.052;2023-02-15T06:56:03;19.43;;;12.53;;
14272;SDS011;7220;49.450;11.052;2023-02-15T07:00:06;19.73;;;13.77;;
14272;SDS011;7220;49.450;11.052;2023-02-15T07:04:08;16.33;;;11.77;;
14272;SDS011;7220;49.450;11.052;2023-02-15T07:08:08;19.63;;;12.00;;
14272;SDS011;7220;49.450;11.052;2023-02-15T07:12:08;17.50;;;11.70;;
14272;SDS011;7220;49.450;11.052;2023-02-15T07:16:28;18.07;;;12.07;;
14272;SDS011;7220;49.450;11.052;2023-02-15T07:20:28;17.27;;;11.80;;
14272;SDS011;7220;49.450;11.052;2023-02-15T07:24:29;16.87;;;11.13;;
14272;SDS011;7220;49.450;11.052;2023-02-15T07:28:30;19.20;;;12.73;;
14272;SDS011;7220;49.450;11.052;2023-02-15T07:32:31;19.03;;;12.43;;
14272;SDS011;7220;49.450;11.052;2023-02-15T07:36:32;18.73;;;11.53;;
14272;SDS011;7220;49.450;11.052;2023-02-15T07:40:32;17.47;;;12.33;;
14272;SDS011;7220;49.450;11.052;2023-02-15T07:44:32;20.90;;;12.17;;
14272;SDS011;7220;49.450;11.052;2023-02-15T07:48:33;15.83;;;10.97;;
14272;SDS011;7220;49.450;11.052;2023-02-15T07:52:34;16.93;;;11.30;;
14272;SDS011;7220;49.450;11.052;2023-02-15T07:56:34;18.50;;;11.77;;
14272;SDS011;7220;49.450;11.052;2023-02-15T08:00:35;18.33;;;11.67;;
14272;SDS011;7220;49.450;11.052;2023-02-15T08:04:55;18.33;;;12.30;;
14272;SDS011;7220;49.450;11.052;2023-02-15T08:08:55;19.67;;;12.53;;
14272;SDS011;7220;49.450;11.052;2023-02-15T08:12:56;18.27;;;11.47;;
14272;SDS011;7220;49.450;11.052;2023-02-15T08:16:58;20.60;;;12.97;;
14272;SDS011;7220;49.450;11.052;2023-02-15T08:21:02;21.53;;;12.87;;
14272;SDS011;7220;49.450;11.052;2023-02-15T08:25:04;19.13;;;12.37;;
14272;SDS011;7220;49.450;11.052;2023-02-15T08:29:06;20.70;;;13.57;;
14272;SDS011;7220;49.450;11.052;2023-02-15T08:33:09;20.43;;;13.13;;
14272;SDS011;7220;49.450;11.052;2023-02-15T08:37:09;20.47;;;13.47;;
14272;SDS011;7220;49.450;11.052;2023-02-15T08:41:14;20.70;;;12.80;;
14272;SDS011;7220;49.450;11.052;2023-02-15T08:45:19;18.87;;;11.70;;
14272;SDS011;7220;49.450;11.052;2023-02-15T08:49:20;17.83;;;11.67;;
14272;SDS011;7220;49.450;11.052;2023-02-15T08:53:21;21.00;;;12.70;;
14272;SDS011;7220;49.450;11.052;2023-02-15T08:57:21;19.07;;;12.37;;
14272;SDS011;7220;49.450;11.052;2023-02-15T09:01:23;19.90;;;12.13;;
14272;SDS011;7220;49.450;11.052;2023-02-15T09:05:25;21.50;;;13.07;;
14272;SDS011;7220;49.450;11.052;2023-02-15T09:09:25;20.30;;;12.23;;
14272;SDS011;7220;49.450;11.052;2023-02-15T09:13:26;18.27;;;12.13;;
14272;SDS011;7220;49.450;11.052;2023-02-15T09:17:26;19.67;;;12.67;;
14272;SDS011;7220;49.450;11.052;2023-02-15T09:21:26;19.93;;;13.40;;
14272;SDS011;7220;49.450;11.052;2023-02-15T09:25:28;19.43;;;13.07;;
14272;SDS011;7220;49.450;11.052;2023-02-15T09:29:28;19.47;;;12.00;;
14272;SDS011;7220;49.450;11.052;2023-02-15T09:33:28;18.77;;;11.97;;
14272;SDS011;7220;49.450;11.052;2023-02-15T09:37:32;17.37;;;11.00;;
14272;SDS011;7220;49.450;11.052;2023-02-15T09:45:52;17.67;;;11.63;;
14272;SDS011;7220;49.450;11.052;2023-02-15T09:54:33;17.70;;;11.57;;
14272;SDS011;7220;49.450;11.052;2023-02-15T10:02:57;17.60;;;10.70;;
14272;SDS011;7220;49.450;11.052;2023-02-15T10:15:57;15.45;;;10.52;;
14272;SDS011;7220;49.450;11.052;2023-02-15T10:28:27;16.80;;;11.47;;
14272;SDS011;7220;49.450;11.052;2023-02-15T10:33:13;18.67;;;11.52;;
14272;SDS011;7220;49.450;11.052;2023-02-15T10:50:48;16.55;;;11.65;;
14272;SDS011;7220;49.450;11.052;2023-02-15T10:59:22;19.20;;;11.05;;
14272;SDS011;7220;49.450;11.052;2023-02-15T11:07:41;16.15;;;11.30;;
14272;SDS011;7220;49.450;11.052;2023-02-15T11:11:45;15.55;;;11.38;;
14272;SDS011;7220;49.450;11.052;2023-02-15T11:16:25;12.77;;;10.15;;
14272;SDS011;7220;49.450;11.052;2023-02-15T11:20:37;19.80;;;12.23;;
14272;SDS011;7220;49.450;11.052;2023-02-15T11:24:43;17.35;;;10.90;;
14272;SDS011;7220;49.450;11.052;2023-02-15T11:28:56;15.82;;;12.20;;
14272;SDS011;7220;49.450;11.052;2023-02-15T11:33:12;19.05;;;12.95;;
14272;SDS011;7220;49.450;11.052;2023-02-15T11:37:19;17.70;;;11.40;;
14272;SDS011;7220;49.450;11.052;2023-02-15T11:41:28;17.48;;;13.05;;
14272;SDS011;7220;49.450;11.052;2023-02-15T11:45:34;16.98;;;12.77;;
14272;SDS011;7220;49.450;11.052;2023-02-15T11:49:35;18.10;;;12.55;;
14272;SDS011;7220;49.450;11.052;2023-02-15T11:53:36;17.55;;;12.57;;
14272;SDS011;7220;49.450;11.052;2023-02-15T11:57:39;16.48;;;12.82;;
14272;SDS011;7220;49.450;11.052;2023-02-15T12:01:46;17.70;;;13.02;;
14272;SDS011;7220;49.450;11.052;2023-02-15T12:05:47;18.33;;;13.05;;
14272;SDS011;7220;49.450;11.052;2023-02-15T12:09:56;19.60;;;13.35;;
14272;SDS011;7220;49.450;11.052;2023-02-15T12:14:05;20.58;;;14.90;;
14272;SDS011;7220;49.450;11.052;2023-02-15T12:18:17;18.58;;;14.40;;
14272;SDS011;7220;49.450;11.052;2023-02-15T12:22:39;19.50;;;13.70;;
14272;SDS011;7220;49.450;11.052;2023-02-15T12:26:59;18.55;;;13.35;;
14272;SDS011;7220;49.450;11.052;2023-02-15T12:31:07;18.02;;;13.30;;
14272;SDS011;7220;49.450;11.052;2023-02-15T12:35:27;18.88;;;13.07;;
14272;SDS011;7220;49.450;11.052;2023-02-15T12:39:30;19.00;;;13.48;;
14272;SDS011;7220;49.450;11.052;2023-02-15T12:47:33;19.88;;;14.10;;
14272;SDS011;7220;49.450;11.052;2023-02-15T12:55:57;17.02;;;13.13;;
14272;SDS011;7220;49.450;11.052;2023-02-15T13:00:06;16.33;;;12.02;;
14272;SDS011;7220;49.450;11.052;2023-02-15T13:04:28;17.73;;;13.93;;
14272;SDS011;7220;49.450;11.052;2023-02-15T13:08:33;16.88;;;12.88;;
14272;SDS011;7220;49.450;11.052;2023-02-15T13:12:37;18.42;;;12.73;;
14272;SDS011;7220;49.450;11.052;2023-02-15T13:16:38;17.45;;;13.63;;
14272;SDS011;7220;49.450;11.052;2023-02-15T13:20:39;17.02;;;13.52;;
14272;SDS011;7220;49.450;11.052;2023-02-15T13:28:58;17.02;;;13.63;;
14272;SDS011;7220;49.450;11.052;2023-02-15T13:33:19;20.70;;;14.18;;
14272;SDS011;7220;49.450;11.052;2023-02-15T13:42:01;20.00;;;14.15;;
14272;SDS011;7220;49.450;11.052;2023-02-15T14:04:12;22.38;;;15.27;;
14272;SDS011;7220;49.450;11.052;2023-02-15T14:17:34;22.55;;;17.08;;
14272;SDS011;7220;49.450;11.052;2023-02-15T14:21:47;21.38;;;17.65;;
14272;SDS011;7220;49.450;11.052;2023-02-15T14:25:55;20.45;;;16.60;;
14272;SDS011;7220;49.450;11.052;2023-02-15T14:30:03;22.55;;;17.20;;
14272;SDS011;7220;49.450;11.052;2023-02-15T14:34:21;22.38;;;17.50;;
14272;SDS011;7220;49.450;11.052;2023-02-15T14:47:21;21.95;;;16.95;;
14272;SDS011;7220;49.450;11.052;2023-02-15T14:55:45;26.20;;;18.48;;
14272;SDS011;7220;49.450;11.052;2023-02-15T15:03:53;23.75;;;17.98;;
14272;SDS011;7220;49.450;11.052;2023-02-15T15:07:57;24.48;;;19.15;;
14272;SDS011;7220;49.450;11.052;2023-02-15T15:12:46;27.05;;;19.13;;
14272;SDS011;7220;49.450;11.052;2023-02-15T15:21:08;25.23;;;19.05;;
14272;SDS011;7220;49.450;11.052;2023-02-15T15:25:04;24.65;;;19.08;;
14272;SDS011;7220;49.450;11.052;2023-02-15T15:29:10;29.20;;;19.63;;
14272;SDS011;7220;49.450;11.052;2023-02-15T15:37:45;30.80;;;22.70;;
14272;SDS011;7220;49.450;11.052;2023-02-15T15:46:19;24.92;;;20.42;;
14272;SDS011;7220;49.450;11.052;2023-02-15T15:50:24;27.98;;;20.52;;
14272;SDS011;7220;49.450;11.052;2023-02-15T15:54:25;27.45;;;20.35;;
14272;SDS011;7220;49.450;11.052;2023-02-15T15:58:26;28.83;;;21.08;;
14272;SDS011;7220;49.450;11.052;2023-02-15T16:02:30;28.38;;;21.25;;
14272;SDS011;7220;49.450;11.052;2023-02-15T16:06:32;30.88;;;20.88;;
14272;SDS011;7220;49.450;11.052;2023-02-15T16:10:37;28.83;;;20.27;;
14272;SDS011;7220;49.450;11.052;2023-02-15T16:14:38;27.20;;;21.48;;
14272;SDS011;7220;49.450;11.052;2023-02-15T16:18:40;24.73;;;19.17;;
14272;SDS011;7220;49.450;11.052;2023-02-15T16:22:43;29.13;;;20.75;;
14272;SDS011;7220;49.450;11.052;2023-02-15T16:26:49;25.75;;;19.98;;
14272;SDS011;7220;49.450;11.052;2023-02-15T16:31:12;26.55;;;19.35;;
14272;SDS011;7220;49.450;11.052;2023-02-15T16:35:16;30.83;;;20.70;;
14272;SDS011;7220;49.450;11.052;2023-02-15T16:39:18;28.08;;;20.42;;
14272;SDS011;7220;49.450;11.052;2023-02-15T16:43:21;28.73;;;20.55;;
14272;SDS011;7220;49.450;11.052;2023-02-15T16:47:27;27.77;;;19.45;;
14272;SDS011;7220;49.450;11.052;2023-02-15T16:51:31;28.20;;;20.70;;
14272;SDS011;7220;49.450;11.052;2023-02-15T16:55:35;29.45;;;20.45;;
14272;SDS011;7220;49.450;11.052;2023-02-15T16:59:39;30.30;;;20.98;;
14272;SDS011;7220;49.450;11.052;2023-02-15T17:03:45;29.73;;;21.70;;
14272;SDS011;7220;49.450;11.052;2023-02-15T17:07:50;34.92;;;22.55;;
14272;SDS011;7220;49.450;11.052;2023-02-15T17:12:03;32.60;;;21.13;;
14272;SDS011;7220;49.450;11.052;2023-02-15T17:20:11;32.83;;;23.13;;
14272;SDS011;7220;49.450;11.052;2023-02-15T17:24:17;28.35;;;20.38;;
14272;SDS011;7220;49.450;11.052;2023-02-15T17:28:27;33.10;;;22.15;;
14272;SDS011;7220;49.450;11.052;2023-02-15T17:32:30;32.08;;;20.88;;
14272;SDS011;7220;49.450;11.052;2023-02-15T17:36:31;32.42;;;20.98;;
14272;SDS011;7220;49.450;11.052;2023-02-15T17:40:33;31.58;;;21.35;;
14272;SDS011;7220;49.450;11.052;2023-02-15T17:44:35;33.65;;;22.65;;
14272;SDS011;7220;49.450;11.052;2023-02-15T17:48:36;34.15;;;24.10;;
14272;SDS011;7220;49.450;11.052;2023-02-15T17:52:39;35.60;;;25.20;;
14272;SDS011;7220;49.450;11.052;2023-02-15T17:56:39;33.55;;;23.40;;
14272;SDS011;7220;49.450;11.052;2023-02-15T18:00:44;36.17;;;23.45;;
14272;SDS011;7220;49.450;11.052;2023-02-15T18:05:07;34.15;;;21.95;;
14272;SDS011;7220;49.450;11.052;2023-02-15T18:09:33;35.10;;;21.33;;
14272;SDS011;7220;49.450;11.052;2023-02-15T18:13:52;31.17;;;21.75;;
14272;SDS011;7220;49.450;11.052;2023-02-15T18:17:53;38.65;;;24.58;;
14272;SDS011;7220;49.450;11.052;2023-02-15T18:21:54;35.53;;;22.70;;
14272;SDS011;7220;49.450;11.052;2023-02-15T18:25:56;31.30;;;21.10;;
14272;SDS011;7220;49.450;11.052;2023-02-15T18:29:56;36.30;;;24.02;;
14272;SDS011;7220;49.450;11.052;2023-02-15T18:33:57;38.97;;;24.58;;
14272;SDS011;7220;49.450;11.052;2023-02-15T18:38:00;40.22;;;24.30;;
14272;SDS011;7220;49.450;11.052;2023-02-15T18:42:01;38.35;;;23.90;;
14272;SDS011;7220;49.450;11.052;2023-02-15T18:46:02;40.92;;;25.60;;
14272;SDS011;7220;49.450;11.052;2023-02-15T18:50:03;45.53;;;28.45;;
14272;SDS011;7220;49.450;11.052;2023-02-15T18:54:04;37.72;;;23.98;;
14272;SDS011;7220;49.450;11.052;2023-02-15T18:58:15;34.47;;;22.67;;
14272;SDS011;7220;49.450;11.052;2023-02-15T19:02:18;38.33;;;25.52;;
14272;SDS011;7220;49.450;11.052;2023-02-15T19:06:20;37.50;;;23.98;;
14272;SDS011;7220;49.450;11.052;2023-02-15T19:10:25;39.53;;;23.05;;
14272;SDS011;7220;49.450;11.052;2023-02-15T19:14:28;36.67;;;23.00;;
14272;SDS011;7220;49.450;11.052;2023-02-15T19:18:30;39.13;;;24.55;;
14272;SDS011;7220;49.450;11.052;2023-02-15T19:22:30;40.40;;;23.75;;
14272;SDS011;7220;49.450;11.052;2023-02-15T19:26:34;38.15;;;24.23;;
14272;SDS011;7220;49.450;11.052;2023-02-15T19:30:40;39.75;;;23.75;;
14272;SDS011;7220;49.450;11.052;2023-02-15T19:34:40;41.25;;;24.20;;
14272;SDS011;7220;49.450;11.052;2023-02-15T19:38:40;42.67;;;25.27;;
14272;SDS011;7220;49.450;11.052;2023-02-15T19:42:41;40.60;;;24.70;;
14272;SDS011;7220;49.450;11.052;2023-02-15T19:46:41;42.00;;;25.67;;
14272;SDS011;7220;49.450;11.052;2023-02-15T19:50:41;40.80;;;24.77;;
14272;SDS011;7220;49.450;11.052;2023-02-15T19:54:43;44.70;;;26.10;;
14272;SDS011;7220;49.450;11.052;2023-02-15T19:58:44;38.17;;;24.55;;
14272;SDS011;7220;49.450;11.052;2023-02-15T20:02:44;42.42;;;26.48;;
14272;SDS011;7220;49.450;11.052;2023-02-15T20:06:45;43.28;;;24.73;;
14272;SDS011;7220;49.450;11.052;2023-02-15T20:10:47;40.92;;;24.17;;
14272;SDS011;7220;49.450;11.052;2023-02-15T20:14:48;41.67;;;24.60;;
14272;SDS011;7220;49.450;11.052;2023-02-15T20:18:49;39.53;;;23.92;;
14272;SDS011;7220;49.450;11.052;2023-02-15T20:22:50;37.13;;;23.58;;
14272;SDS011;7220;49.450;11.052;2023-02-15T20:26:50;41.30;;;23.85;;
14272;SDS011;7220;49.450;11.052;2023-02-15T20:30:51;38.47;;;23.15;;
14272;SDS011;7220;49.450;11.052;2023-02-15T20:34:52;35.63;;;23.65;;
14272;SDS011;7220;49.450;11.052;2023-02-15T20:38:52;35.17;;;21.75;;
14272;SDS011;7220;49.450;11.052;2023-02-15T20:42:53;36.92;;;24.05;;
14272;SDS011;7220;49.450;11.052;2023-02-15T20:46:54;35.65;;;22.48;;
14272;SDS011;7220;49.450;11.052;2023-02-15T20:50:57;34.83;;;22.17;;
14272;SDS011;7220;49.450;11.052;2023-02-15T20:54:57;33.78;;;22.15;;
14272;SDS011;7220;49.450;11.052;2023-02-15T20:58:58;32.92;;;22.70;;
14272;SDS011;7220;49.450;11.052;2023-02-15T21:02:59;35.60;;;22.17;;
14272;SDS011;7220;49.450;11.052;2023-02-15T21:07:00;36.17;;;22.83;;
14272;SDS011;7220;49.450;11.052;2023-02-15T21:11:01;32.88;;;21.38;;
14272;SDS011;7220;49.450;11.052;2023-02-15T21:15:01;34.05;;;21.83;;
14272;SDS011;7220;49.450;11.052;2023-02-15T21:19:05;33.67;;;21.52;;
14272;SDS011;7220;49.450;11.052;2023-02-15T21:23:15;32.88;;;21.55;;
14272;SDS011;7220;49.450;11.052;2023-02-15T21:27:18;32.13;;;21.40;;
14272;SDS011;7220;49.450;11.052;2023-02-15T21:31:20;33.22;;;21.88;;
14272;SDS011;7220;49.450;11.052;2023-02-15T21:35:22;35.80;;;22.67;;
14272;SDS011;7220;49.450;11.052;2023-02-15T21:39:23;33.93;;;21.03;;
14272;SDS011;7220;49.450;11.052;2023-02-15T21:43:25;39.63;;;23.57;;
14272;SDS011;7220;49.450;11.052;2023-02-15T21:47:45;36.13;;;22.67;;
14272;SDS011;7220;49.450;11.052;2023-02-15T21:51:51;32.70;;;20.93;;
14272;SDS011;7220;49.450;11.052;2023-02-15T21:56:14;35.63;;;21.73;;
14272;SDS011;7220;49.450;11.052;2023-02-15T22:00:18;36.13;;;22.17;;
14272;SDS011;7220;49.450;11.052;2023-02-15T22:04:24;32.40;;;21.58;;
14272;SDS011;7220;49.450;11.052;2023-02-15T22:08:26;35.33;;;21.77;;
14272;SDS011;7220;49.450;11.052;2023-02-15T22:12:26;31.43;;;20.87;;
14272;SDS011;7220;49.450;11.052;2023-02-15T22:16:28;29.52;;;19.52;;
14272;SDS011;7220;49.450;11.052;2023-02-15T22:20:29;37.57;;;22.83;;
14272;SDS011;7220;49.450;11.052;2023-02-15T22:24:30;32.33;;;20.83;;
14272;SDS011;7220;49.450;11.052;2023-02-15T22:28:31;34.67;;;20.97;;
14272;SDS011;7220;49.450;11.052;2023-02-15T22:32:36;31.38;;;20.98;;
14272;SDS011;7220;49.450;11.052;2023-02-15T22:36:37;32.00;;;19.40;;
14272;SDS011;7220;49.450;11.052;2023-02-15T22:40:37;37.40;;;22.75;;
14272;SDS011;7220;49.450;11.052;2023-02-15T22:44:39;39.10;;;22.30;;
14272;SDS011;7220;49.450;11.052;2023-02-15T22:48:40;35.60;;;23.03;;
14272;SDS011;7220;49.450;11.052;2023-02-15T22:52:42;34.90;;;21.03;;
14272;SDS011;7220;49.450;11.052;2023-02-15T22:56:43;34.80;;;21.70;;
14272;SDS011;7220;49.450;11.052;2023-02-15T23:00:44;36.83;;;23.97;;
14272;SDS011;7220;49.450;11.052;2023-02-15T23:04:44;39.25;;;21.98;;
14272;SDS011;7220;49.450;11.052;2023-02-15T23:08:45;39.78;;;22.45;;
14272;SDS011;7220;49.450;11.052;2023-02-15T23:12:58;37.73;;;22.50;;
14272;SDS011;7220;49.450;11.052;2023-02-15T23:17:18;35.57;;;21.47;;
14272;SDS011;7220;49.450;11.052;2023-02-15T23:21:29;34.40;;;21.93;;
14272;SDS011;7220;49.450;11.052;2023-02-15T23:25:31;37.60;;;21.20;;
14272;SDS011;7220;49.450;11.052;2023-02-15T23:29:31;37.07;;;21.93;;
14272;SDS011;7220;49.450;11.052;2023-02-15T23:33:32;38.43;;;21.57;;
14272;SDS011;7220;49.450;11.052;2023-02-15T23:37:34;35.23;;;21.70;;
14272;SDS011;7220;49.450;11.052;2023-02-15T23:41:34;34.47;;;20.40;;
14272;SDS011;7220;49.450;11.052;2023-02-15T23:45:36;35.92;;;20.20;;
14272;SDS011;7220;49.450;11.052;2023-02-15T23:49:37;38.80;;;21.65;;
14272;SDS011;7220;49.450;11.052;2023-02-15T23:53:37;36.73;;;22.50;;
14272;SDS011;7220;49.450;11.052;2023-02-15T23:57:38;33.20;;;20.23;;
